createdAt,value
2023-02-27T00:00:47.251Z,52.52
2023-02-27T00:03:13.805Z,51.79
2023-02-27T00:05:41.900Z,52.30
2023-02-27T00:08:08.945Z,52.49
2023-02-27T00:10:35.758Z,52.25
2023-02-27T00:13:02.329Z,52.58
2023-02-27T00:15:31.812Z,53.01
2023-02-27T00:17:59.551Z,52.81
2023-02-27T00:20:26.767Z,53.15
2023-02-27T00:22:53.346Z,52.73
2023-02-27T00:25:19.951Z,52.97
2023-02-27T00:27:46.561Z,53.18
2023-02-27T00:30:15.590Z,53.45
2023-02-27T00:32:42.623Z,53.25
2023-02-27T00:35:11.006Z,53.41
2023-02-27T00:37:38.597Z,52.93
2023-02-27T00:40:06.498Z,53.25
2023-02-27T00:42:33.477Z,53.68
2023-02-27T00:45:00.107Z,53.56
2023-02-27T00:47:26.714Z,53.96
2023-02-27T00:49:53.358Z,53.95
2023-02-27T00:52:20.111Z,53.82
2023-02-27T00:54:46.795Z,53.88
2023-02-27T00:57:13.440Z,53.85
2023-02-27T00:59:40.003Z,54.27
2023-02-27T01:02:07.892Z,54.38
2023-02-27T01:04:34.526Z,54.80
2023-02-27T01:07:01.102Z,54.30
2023-02-27T01:09:27.677Z,54.63
2023-02-27T01:11:54.298Z,54.68
2023-02-27T01:14:20.952Z,54.92
2023-02-27T01:16:47.520Z,54.77
2023-02-27T01:19:14.090Z,54.74
2023-02-27T01:21:42.162Z,54.72
2023-02-27T01:24:09.808Z,54.64
2023-02-27T01:26:36.467Z,54.64
2023-02-27T01:29:04.659Z,54.55
2023-02-27T01:31:32.604Z,54.83
2023-02-27T01:33:59.225Z,54.47
2023-02-27T01:36:25.840Z,54.55
2023-02-27T01:38:52.424Z,54.99
2023-02-27T01:41:19.000Z,54.98
2023-02-27T01:44:02.300Z,54.81
2023-02-27T01:46:30.597Z,54.88
2023-02-27T01:49:12.908Z,54.91
2023-02-27T01:52:01.982Z,54.72
2023-02-27T01:54:31.159Z,54.76
2023-02-27T01:56:57.971Z,54.58
2023-02-27T01:59:24.804Z,54.26
2023-02-27T02:01:51.900Z,53.90
2023-02-27T02:04:27.676Z,53.95
2023-02-27T02:07:02.030Z,53.90
2023-02-27T02:09:29.868Z,54.00
2023-02-27T02:11:59.128Z,53.71
2023-02-27T02:14:27.682Z,53.78
2023-02-27T02:17:00.326Z,53.83
2023-02-27T02:20:08.116Z,53.44
2023-02-27T02:22:56.083Z,53.59
2023-02-27T02:25:34.790Z,53.49
2023-02-27T02:28:04.149Z,52.90
2023-02-27T02:31:18.737Z,53.07
2023-02-27T02:34:19.284Z,52.79
2023-02-27T02:36:45.785Z,52.95
2023-02-27T02:39:40.755Z,53.14
2023-02-27T02:42:20.968Z,52.75
2023-02-27T02:45:09.515Z,52.68
2023-02-27T02:48:01.136Z,52.75
2023-02-27T02:50:48.308Z,53.03
2023-02-27T02:53:36.967Z,52.69
2023-02-27T02:56:17.396Z,52.33
2023-02-27T02:58:52.333Z,52.48
2023-02-27T03:01:27.317Z,52.23
2023-02-27T03:04:03.754Z,52.55
2023-02-27T03:06:37.643Z,52.33
2023-02-27T03:09:12.102Z,52.67
2023-02-27T03:11:44.279Z,52.09
2023-02-27T03:14:35.282Z,51.81
2023-02-27T03:17:18.184Z,52.08
2023-02-27T03:20:13.000Z,52.25
2023-02-27T03:22:42.809Z,51.84
2023-02-27T03:25:14.322Z,52.03
2023-02-27T03:27:46.356Z,51.86
2023-02-27T03:30:20.033Z,51.41
2023-02-27T03:33:05.177Z,51.44
2023-02-27T03:35:50.233Z,51.61
2023-02-27T03:39:01.960Z,51.08
2023-02-27T03:42:06.508Z,51.09
2023-02-27T03:44:55.968Z,51.12
2023-02-27T03:47:22.681Z,50.56
2023-02-27T03:49:52.036Z,50.83
2023-02-27T03:52:22.094Z,50.56
2023-02-27T03:55:15.076Z,50.59
2023-02-27T03:57:42.642Z,50.24
2023-02-27T04:00:13.815Z,50.30
2023-02-27T04:02:41.804Z,50.18
2023-02-27T04:05:08.626Z,49.81
2023-02-27T04:07:52.030Z,49.90
2023-02-27T04:10:43.008Z,49.96
2023-02-27T04:13:37.573Z,50.00
2023-02-27T04:16:31.273Z,50.02
2023-02-27T04:19:28.125Z,49.71
2023-02-27T04:22:28.246Z,50.16
2023-02-27T04:25:15.833Z,49.60
2023-02-27T04:27:45.248Z,49.55
2023-02-27T04:30:16.416Z,49.12
2023-02-27T04:32:58.087Z,49.37
2023-02-27T04:35:51.058Z,49.16
2023-02-27T04:38:29.019Z,49.00
2023-02-27T04:41:07.142Z,49.32
2023-02-27T04:43:37.377Z,48.97
2023-02-27T04:46:06.987Z,48.90
2023-02-27T04:48:43.686Z,48.90
2023-02-27T04:51:18.594Z,48.82
2023-02-27T04:53:54.352Z,49.31
2023-02-27T04:56:27.799Z,48.76
2023-02-27T04:59:00.236Z,48.50
2023-02-27T05:01:41.594Z,48.57
2023-02-27T05:04:14.198Z,48.68
2023-02-27T05:06:43.838Z,48.62
2023-02-27T05:09:35.370Z,48.69
2023-02-27T05:12:09.718Z,49.15
2023-02-27T05:14:39.774Z,48.88
2023-02-27T05:17:09.327Z,48.81
2023-02-27T05:19:40.937Z,49.31
2023-02-27T05:22:33.489Z,49.42
2023-02-27T05:25:12.248Z,49.37
2023-02-27T05:27:51.209Z,48.97
2023-02-27T05:30:27.201Z,48.54
2023-02-27T05:33:05.543Z,48.72
2023-02-27T05:35:38.206Z,48.58
2023-02-27T05:38:12.876Z,48.24
2023-02-27T05:40:43.711Z,48.62
2023-02-27T05:43:21.220Z,48.38
2023-02-27T05:45:53.344Z,48.42
2023-02-27T05:48:30.373Z,48.34
2023-02-27T05:50:59.028Z,48.14
2023-02-27T05:53:30.537Z,48.15
2023-02-27T05:56:01.811Z,48.50
2023-02-27T05:58:51.263Z,48.17
2023-02-27T06:01:17.894Z,47.93
2023-02-27T06:03:44.624Z,47.92
2023-02-27T06:06:18.597Z,47.89
2023-02-27T06:08:45.742Z,47.77
2023-02-27T06:11:13.306Z,47.61
2023-02-27T06:13:41.954Z,47.52
2023-02-27T06:16:12.719Z,47.72
2023-02-27T06:18:39.378Z,47.54
2023-02-27T06:21:06.568Z,47.38
2023-02-27T06:23:33.328Z,47.78
2023-02-27T06:26:00.090Z,47.28
2023-02-27T06:28:26.664Z,47.83
2023-02-27T06:30:57.677Z,48.20
2023-02-27T06:33:26.038Z,48.26
2023-02-27T06:35:53.075Z,47.89
2023-02-27T06:38:19.728Z,47.98
2023-02-27T06:40:46.312Z,47.92
2023-02-27T06:43:12.900Z,48.07
2023-02-27T06:45:39.494Z,47.24
2023-02-27T06:48:06.332Z,47.75
2023-02-27T06:50:33.056Z,47.79
2023-02-27T06:52:59.596Z,47.67
2023-02-27T06:55:26.165Z,47.10
2023-02-27T06:57:52.760Z,47.02
2023-02-27T07:00:19.751Z,47.21
2023-02-27T07:02:46.369Z,46.74
2023-02-27T07:05:12.982Z,46.13
2023-02-27T07:07:40.548Z,46.44
2023-02-27T07:10:11.715Z,46.85
2023-02-27T07:12:39.903Z,45.92
2023-02-27T07:15:07.751Z,46.26
2023-02-27T07:17:34.356Z,46.19
2023-02-27T07:20:02.053Z,46.63
2023-02-27T07:22:28.698Z,45.98
2023-02-27T07:24:55.280Z,45.89
2023-02-27T07:27:21.884Z,46.07
2023-02-27T07:29:48.455Z,46.26
2023-02-27T07:32:15.332Z,45.37
2023-02-27T07:34:42.016Z,45.97
2023-02-27T07:37:08.878Z,45.27
2023-02-27T07:39:35.552Z,45.17
2023-02-27T07:42:02.121Z,45.28
2023-02-27T07:44:28.722Z,45.39
2023-02-27T07:46:55.379Z,45.79
2023-02-27T07:49:22.118Z,45.66
2023-02-27T07:51:48.918Z,45.50
2023-02-27T07:54:15.633Z,45.22
2023-02-27T07:56:42.197Z,44.85
2023-02-27T07:59:08.851Z,44.92
2023-02-27T08:01:35.482Z,44.13
2023-02-27T08:04:02.042Z,45.01
2023-02-27T08:06:28.856Z,43.55
2023-02-27T08:08:55.870Z,44.01
2023-02-27T08:11:22.468Z,43.97
2023-02-27T08:14:05.448Z,43.56
2023-02-27T08:16:32.542Z,42.51
2023-02-27T08:19:00.253Z,44.09
2023-02-27T08:21:27.755Z,44.25
2023-02-27T08:23:54.683Z,43.70
2023-02-27T08:26:21.792Z,44.04
2023-02-27T08:28:48.380Z,43.55
2023-02-27T08:31:15.104Z,43.61
2023-02-27T08:33:41.681Z,43.57
2023-02-27T08:36:08.586Z,43.87
2023-02-27T08:38:35.202Z,43.56
2023-02-27T08:41:01.806Z,43.20
2023-02-27T08:43:28.388Z,43.46
2023-02-27T08:45:55.033Z,43.53
2023-02-27T08:48:24.061Z,43.71
2023-02-27T08:50:51.326Z,43.86
2023-02-27T08:53:18.055Z,43.12
2023-02-27T08:55:44.785Z,42.80
2023-02-27T08:58:11.321Z,42.84
2023-02-27T09:00:37.932Z,42.95
2023-02-27T09:03:04.588Z,42.97
2023-02-27T09:05:35.151Z,42.15
2023-02-27T09:08:03.256Z,42.65
2023-02-27T09:10:30.993Z,43.18
2023-02-27T09:12:57.588Z,42.67
2023-02-27T09:15:24.378Z,41.59
2023-02-27T09:17:51.422Z,41.78
2023-02-27T09:20:18.116Z,41.72
2023-02-27T09:22:44.834Z,42.15
2023-02-27T09:25:11.517Z,41.65
2023-02-27T09:27:38.090Z,41.65
2023-02-27T09:30:05.468Z,41.45
2023-02-27T09:32:32.710Z,42.25
2023-02-27T09:35:00.442Z,42.15
2023-02-27T09:37:26.988Z,41.69
2023-02-27T09:39:53.534Z,41.31
2023-02-27T09:42:26.536Z,41.59
2023-02-27T09:44:57.709Z,42.08
2023-02-27T09:47:48.071Z,42.43
2023-02-27T09:50:20.274Z,41.83
2023-02-27T09:52:46.916Z,42.14
2023-02-27T09:55:20.912Z,41.47
2023-02-27T09:57:56.426Z,41.54
2023-02-27T10:00:49.313Z,41.95
2023-02-27T10:03:36.203Z,41.67
2023-02-27T10:06:14.743Z,41.77
2023-02-27T10:09:22.390Z,41.71
2023-02-27T10:12:26.787Z,41.44
2023-02-27T10:15:05.988Z,41.99
2023-02-27T10:17:38.878Z,41.49
2023-02-27T10:20:10.648Z,41.62
2023-02-27T10:22:43.349Z,40.58
2023-02-27T10:25:30.266Z,40.34
2023-02-27T10:28:08.895Z,40.55
2023-02-27T10:30:35.951Z,40.13
2023-02-27T10:33:09.019Z,39.49
2023-02-27T10:35:39.091Z,39.47
2023-02-27T10:38:29.395Z,37.78
2023-02-27T10:40:58.197Z,39.07
2023-02-27T10:43:25.086Z,39.35
2023-02-27T10:45:52.986Z,39.35
2023-02-27T10:48:20.616Z,38.54
2023-02-27T10:50:52.241Z,39.13
2023-02-27T10:53:23.075Z,38.60
2023-02-27T10:56:05.273Z,39.85
2023-02-27T10:58:35.551Z,39.46
2023-02-27T11:01:04.990Z,41.23
2023-02-27T11:03:40.954Z,40.89
2023-02-27T11:06:34.575Z,39.17
2023-02-27T11:09:13.151Z,39.02
2023-02-27T11:11:39.870Z,35.51
2023-02-27T11:14:36.304Z,32.67
2023-02-27T11:17:03.708Z,32.34
2023-02-27T11:19:38.935Z,33.53
2023-02-27T11:22:17.275Z,33.40
2023-02-27T11:24:44.428Z,33.65
2023-02-27T11:27:26.490Z,33.75
2023-02-27T11:30:01.174Z,33.92
2023-02-27T11:32:36.173Z,33.13
2023-02-27T11:35:04.592Z,32.04
2023-02-27T11:37:35.091Z,31.65
2023-02-27T11:40:12.826Z,32.52
2023-02-27T11:42:56.646Z,33.89
2023-02-27T11:46:19.452Z,35.46
2023-02-27T11:48:30.908Z,34.86
2023-02-27T11:51:00.234Z,34.55
2023-02-27T11:53:44.794Z,35.89
2023-02-27T11:56:17.101Z,32.48
2023-02-27T11:59:00.896Z,29.82
2023-02-27T12:01:49.416Z,30.36
2023-02-27T12:04:42.041Z,27.62
2023-02-27T12:07:15.225Z,27.33
2023-02-27T12:09:51.583Z,27.36
2023-02-27T12:12:28.093Z,25.45
2023-02-27T12:15:00.805Z,29.10
2023-02-27T12:17:44.951Z,25.93
2023-02-27T12:20:42.078Z,25.54
2023-02-27T12:23:30.326Z,25.89
2023-02-27T12:26:10.464Z,25.86
2023-02-27T12:28:36.979Z,25.54
2023-02-27T12:31:13.447Z,26.10
2023-02-27T12:34:18.688Z,26.60
2023-02-27T12:36:45.938Z,25.31
2023-02-27T12:39:28.670Z,26.56
2023-02-27T12:42:39.909Z,26.89
2023-02-27T12:45:15.638Z,25.96
2023-02-27T12:48:12.672Z,26.21
2023-02-27T12:50:50.861Z,24.91
2023-02-27T12:53:50.029Z,24.53
2023-02-27T12:56:20.680Z,23.89
2023-02-27T12:59:29.367Z,23.35
2023-02-27T13:02:44.434Z,23.25
2023-02-27T13:05:24.334Z,23.70
2023-02-27T13:07:59.988Z,23.99
2023-02-27T13:10:44.084Z,24.07
2023-02-27T13:13:26.228Z,25.61
2023-02-27T13:16:01.858Z,25.83
2023-02-27T13:18:38.564Z,26.38
2023-02-27T13:21:30.089Z,26.41
2023-02-27T13:24:15.007Z,27.20
2023-02-27T13:26:53.806Z,26.95
2023-02-27T13:29:23.426Z,27.26
2023-02-27T13:32:01.447Z,25.97
2023-02-27T13:34:40.209Z,25.83
2023-02-27T13:37:08.827Z,25.89
2023-02-27T13:39:45.706Z,26.26
2023-02-27T13:42:27.480Z,26.09
2023-02-27T13:44:54.142Z,26.14
2023-02-27T13:47:50.101Z,26.88
2023-02-27T13:50:21.256Z,27.18
2023-02-27T13:52:48.412Z,28.14
2023-02-27T13:55:31.216Z,28.97
2023-02-27T13:58:00.832Z,29.48
2023-02-27T14:00:33.041Z,29.66
2023-02-27T14:03:16.675Z,29.98
2023-02-27T14:05:46.285Z,29.87
2023-02-27T14:08:25.012Z,28.41
2023-02-27T14:11:16.476Z,27.81
2023-02-27T14:13:45.773Z,27.19
2023-02-27T14:16:37.418Z,28.05
2023-02-27T14:19:16.218Z,28.07
2023-02-27T14:21:55.848Z,27.52
2023-02-27T14:25:02.126Z,27.48
2023-02-27T14:27:52.015Z,28.43
2023-02-27T14:30:41.059Z,26.39
2023-02-27T14:33:13.698Z,25.63
2023-02-27T14:35:45.610Z,25.35
2023-02-27T14:38:17.902Z,24.91
2023-02-27T14:41:08.130Z,25.55
2023-02-27T14:43:55.065Z,25.06
2023-02-27T14:46:39.783Z,25.42
2023-02-27T14:49:17.984Z,25.96
2023-02-27T14:51:44.967Z,24.81
2023-02-27T14:54:21.243Z,25.06
2023-02-27T14:56:59.576Z,25.04
2023-02-27T14:59:34.054Z,24.80
2023-02-27T15:02:04.875Z,25.03
2023-02-27T15:04:33.141Z,25.56
2023-02-27T15:07:00.789Z,26.41
2023-02-27T15:09:35.687Z,25.83
2023-02-27T15:12:04.645Z,26.01
2023-02-27T15:14:39.726Z,26.42
2023-02-27T15:17:38.236Z,24.57
2023-02-27T15:20:25.231Z,24.95
2023-02-27T15:22:51.817Z,24.76
2023-02-27T15:25:32.353Z,25.60
2023-02-27T15:28:07.436Z,26.47
2023-02-27T15:30:34.152Z,27.20
2023-02-27T15:33:02.838Z,26.94
2023-02-27T15:35:37.902Z,27.05
2023-02-27T15:38:05.089Z,27.70
2023-02-27T15:40:34.201Z,27.55
2023-02-27T15:43:01.723Z,28.16
2023-02-27T15:45:32.950Z,28.52
2023-02-27T15:48:00.161Z,28.25
2023-02-27T15:50:42.971Z,28.39
2023-02-27T15:53:13.801Z,29.00
2023-02-27T15:55:44.375Z,29.01
2023-02-27T15:58:20.301Z,27.97
2023-02-27T16:00:47.031Z,29.29
2023-02-27T16:03:22.235Z,28.56
2023-02-27T16:05:52.530Z,28.67
2023-02-27T16:08:20.487Z,30.34
2023-02-27T16:10:48.028Z,30.09
2023-02-27T16:13:40.063Z,29.68
2023-02-27T16:16:25.645Z,29.78
2023-02-27T16:18:57.499Z,29.37
2023-02-27T16:21:26.668Z,31.07
2023-02-27T16:23:54.497Z,32.10
2023-02-27T16:26:32.628Z,33.37
2023-02-27T16:29:03.769Z,31.70
2023-02-27T16:31:39.285Z,32.33
2023-02-27T16:34:42.799Z,33.68
2023-02-27T16:37:21.132Z,34.04
2023-02-27T16:39:50.707Z,33.75
2023-02-27T16:42:17.319Z,33.99
2023-02-27T16:44:43.958Z,34.79
2023-02-27T16:47:10.928Z,35.04
2023-02-27T16:49:39.081Z,35.57
2023-02-27T16:52:07.329Z,34.88
2023-02-27T16:54:35.231Z,35.64
2023-02-27T16:57:01.825Z,35.40
2023-02-27T16:59:33.610Z,35.65
2023-02-27T17:02:02.769Z,35.40
2023-02-27T17:04:30.424Z,35.50
2023-02-27T17:06:59.226Z,36.26
2023-02-27T17:09:27.590Z,37.03
2023-02-27T17:11:55.016Z,36.69
2023-02-27T17:14:24.955Z,37.38
2023-02-27T17:16:51.671Z,37.52
2023-02-27T17:19:21.448Z,37.19
2023-02-27T17:21:48.651Z,36.84
2023-02-27T17:24:15.372Z,36.72
2023-02-27T17:26:42.396Z,37.97
2023-02-27T17:29:09.833Z,37.79
2023-02-27T17:31:37.392Z,38.05
2023-02-27T17:34:05.394Z,38.46
2023-02-27T17:36:32.278Z,37.85
2023-02-27T17:39:02.888Z,39.20
2023-02-27T17:41:31.572Z,39.45
2023-02-27T17:43:59.149Z,38.83
2023-02-27T17:46:27.689Z,40.95
2023-02-27T17:48:56.244Z,40.38
2023-02-27T17:51:23.193Z,40.25
2023-02-27T17:53:49.783Z,41.30
2023-02-27T17:56:16.360Z,40.84
2023-02-27T17:58:45.914Z,41.35
2023-02-27T18:01:15.588Z,42.48
2023-02-27T18:03:44.022Z,40.78
2023-02-27T18:06:10.682Z,43.62
2023-02-27T18:08:37.235Z,45.21
2023-02-27T18:11:04.575Z,44.67
2023-02-27T18:13:31.172Z,45.55
2023-02-27T18:15:58.025Z,44.75
2023-02-27T18:18:24.578Z,45.31
2023-02-27T18:21:06.648Z,46.69
2023-02-27T18:23:33.313Z,45.79
2023-02-27T18:26:00.523Z,47.03
2023-02-27T18:28:27.200Z,46.83
2023-02-27T18:30:53.883Z,46.24
2023-02-27T18:33:20.811Z,47.49
2023-02-27T18:35:47.477Z,46.03
2023-02-27T18:38:14.572Z,45.10
2023-02-27T18:40:42.766Z,46.23
2023-02-27T18:43:13.902Z,45.44
2023-02-27T18:45:41.005Z,45.34
2023-02-27T18:48:08.384Z,45.50
2023-02-27T18:50:35.024Z,45.65
2023-02-27T18:53:01.644Z,47.05
2023-02-27T18:55:28.332Z,46.20
2023-02-27T18:57:55.175Z,46.01
2023-02-27T19:00:24.106Z,46.15
2023-02-27T19:02:50.799Z,46.47
2023-02-27T19:05:17.510Z,46.74
2023-02-27T19:07:44.132Z,46.96
2023-02-27T19:10:11.620Z,45.89
2023-02-27T19:12:38.185Z,46.88
2023-02-27T19:15:05.726Z,46.81
2023-02-27T19:17:33.554Z,46.19
2023-02-27T19:20:00.522Z,47.22
2023-02-27T19:22:30.779Z,47.10
2023-02-27T19:24:57.726Z,48.03
2023-02-27T19:27:24.538Z,47.83
2023-02-27T19:29:51.446Z,47.72
2023-02-27T19:32:18.123Z,47.31
2023-02-27T19:34:44.872Z,47.64
2023-02-27T19:37:11.513Z,47.81
2023-02-27T19:39:38.096Z,47.55
2023-02-27T19:42:04.732Z,48.61
2023-02-27T19:44:32.400Z,47.59
2023-02-27T19:46:59.108Z,48.57
2023-02-27T19:49:25.743Z,48.73
2023-02-27T19:51:52.377Z,48.02
2023-02-27T19:54:18.965Z,48.61
2023-02-27T19:56:45.623Z,47.96
2023-02-27T19:59:12.711Z,49.45
2023-02-27T20:01:40.784Z,49.43
2023-02-27T20:04:09.103Z,48.61
2023-02-27T20:06:41.973Z,48.43
2023-02-27T20:09:11.508Z,48.61
2023-02-27T20:11:38.202Z,49.03
2023-02-27T20:14:04.989Z,48.94
2023-02-27T20:16:35.586Z,48.83
2023-02-27T20:19:07.048Z,49.59
2023-02-27T20:21:33.980Z,48.78
2023-02-27T20:24:01.364Z,48.95
2023-02-27T20:26:36.609Z,49.30
2023-02-27T20:29:06.819Z,48.46
2023-02-27T20:31:36.164Z,48.62
2023-02-27T20:34:05.939Z,48.30
2023-02-27T20:36:33.986Z,49.04
2023-02-27T20:39:00.802Z,49.16
2023-02-27T20:41:29.618Z,48.73
2023-02-27T20:43:56.962Z,49.15
2023-02-27T20:46:27.958Z,49.53
2023-02-27T20:49:00.394Z,49.67
2023-02-27T20:51:30.326Z,49.44
2023-02-27T20:53:59.310Z,49.65
2023-02-27T20:56:32.090Z,49.57
2023-02-27T20:59:01.364Z,49.76
2023-02-27T21:01:28.592Z,49.75
2023-02-27T21:03:57.678Z,50.65
2023-02-27T21:06:24.761Z,50.64
2023-02-27T21:08:55.272Z,50.16
2023-02-27T21:11:27.194Z,50.29
2023-02-27T21:13:55.780Z,50.19
2023-02-27T21:16:24.993Z,50.67
2023-02-27T21:18:52.868Z,51.42
2023-02-27T21:24:59.847Z,50.99
2023-02-27T21:27:26.632Z,50.66
2023-02-27T21:29:53.280Z,50.54
2023-02-27T21:32:19.937Z,51.10
2023-02-27T21:34:46.605Z,51.22
2023-02-27T21:37:13.175Z,50.71
2023-02-27T21:39:39.723Z,51.37
2023-02-27T21:42:07.419Z,51.09
2023-02-27T21:44:34.190Z,51.71
2023-02-27T21:47:09.763Z,52.22
2023-02-27T21:49:37.303Z,51.87
2023-02-27T21:52:04.185Z,51.75
2023-02-27T21:54:30.774Z,51.90
2023-02-27T21:57:01.854Z,51.68
2023-02-27T21:59:28.987Z,52.28
2023-02-27T22:01:57.251Z,52.27
2023-02-27T22:04:24.352Z,52.75
2023-02-27T22:06:52.381Z,53.75
2023-02-27T22:09:19.834Z,53.37
2023-02-27T22:11:46.919Z,53.50
2023-02-27T22:14:13.551Z,53.98
2023-02-27T22:16:40.760Z,53.15
2023-02-27T22:19:09.754Z,53.04
2023-02-27T22:21:37.236Z,53.27
2023-02-27T22:24:50.495Z,54.63
2023-02-27T22:27:17.208Z,54.36
2023-02-27T22:29:43.789Z,54.85
2023-02-27T22:32:10.438Z,54.81
2023-02-27T22:34:37.081Z,53.97
2023-02-27T22:37:03.632Z,54.13
2023-02-27T22:39:31.185Z,54.42
2023-02-27T22:41:57.780Z,54.87
2023-02-27T22:44:24.412Z,54.74
2023-02-27T22:46:51.140Z,54.48
2023-02-27T22:49:20.638Z,55.06
2023-02-27T22:51:50.735Z,54.82
2023-02-27T22:54:19.303Z,54.45
2023-02-27T22:56:45.966Z,55.09
2023-02-27T22:59:12.568Z,55.20
2023-02-27T23:01:39.200Z,54.77
2023-02-27T23:04:08.509Z,55.83
2023-02-27T23:06:38.880Z,55.80
2023-02-27T23:09:07.546Z,55.15
2023-02-27T23:11:34.302Z,54.19
2023-02-27T23:14:00.928Z,55.52
2023-02-27T23:16:27.859Z,55.43
2023-02-27T23:18:56.902Z,55.49
2023-02-27T23:21:31.922Z,55.84
2023-02-27T23:23:58.629Z,55.67
2023-02-27T23:26:28.395Z,55.38
2023-02-27T23:28:56.695Z,56.45
2023-02-27T23:31:23.814Z,57.09
2023-02-27T23:33:50.480Z,56.05
2023-02-27T23:36:17.661Z,55.98
2023-02-27T23:38:46.646Z,56.38
2023-02-27T23:41:17.310Z,55.55
2023-02-27T23:43:44.671Z,55.67
2023-02-27T23:46:16.340Z,56.28
2023-02-27T23:48:43.536Z,56.23
2023-02-27T23:51:11.236Z,55.85
2023-02-27T23:53:39.321Z,56.58
2023-02-27T23:56:24.028Z,56.94
2023-02-27T23:58:59.397Z,56.20
